Eneas Marques, Brazil
Current Conditions -  °F | °C
As of 10:00 AM on Saturday 20 Dec 2014 (Local Time) from SBCA Reporting Station
Few Clouds Few Clouds  
Wind Chill: 77°   Ceiling: Unl
Heat Index: 79°   Visibility: 6mi
Dew Point: 64°   Wind: 16mph
Humidity: 65%   Direction: 50°NE
Pressure: 29.85"   Gusts: NA
Location:  25.94°S, 53.16°W
Report Text: SBCA 201200Z 05014KT 9999 FEW040 25/18 Q1011
Loading
Personal Weather Stations






























Interactive Weather Map New forecast layout! Learn more

10-Day Weather Forecast

Advertisements
Track Severe Weather on mobile